sensor_id;sensor_type;location;lat;lon;timestamp;P1;durP1;ratioP1;P2;durP2;ratioP2
25667;SDS011;18003;-33.830;151.202;2023-02-12T00:01:44;17.73;;;7.00;;
25667;SDS011;18003;-33.830;151.202;2023-02-12T00:04:14;17.48;;;6.80;;
25667;SDS011;18003;-33.830;151.202;2023-02-12T00:06:44;14.50;;;6.40;;
25667;SDS011;18003;-33.830;151.202;2023-02-12T00:09:14;18.32;;;7.20;;
25667;SDS011;18003;-33.830;151.202;2023-02-12T00:11:45;22.30;;;7.03;;
25667;SDS011;18003;-33.830;151.202;2023-02-12T00:14:15;20.65;;;6.97;;
25667;SDS011;18003;-33.830;151.202;2023-02-12T00:16:46;21.85;;;7.50;;
25667;SDS011;18003;-33.830;151.202;2023-02-12T00:19:16;19.42;;;6.92;;
25667;SDS011;18003;-33.830;151.202;2023-02-12T00:21:46;17.95;;;7.12;;
25667;SDS011;18003;-33.830;151.202;2023-02-12T00:24:16;22.95;;;7.67;;
25667;SDS011;18003;-33.830;151.202;2023-02-12T00:26:46;18.55;;;7.65;;
25667;SDS011;18003;-33.830;151.202;2023-02-12T00:29:16;17.52;;;6.87;;
25667;SDS011;18003;-33.830;151.202;2023-02-12T00:31:46;22.60;;;7.50;;
25667;SDS011;18003;-33.830;151.202;2023-02-12T00:34:16;21.93;;;7.22;;
25667;SDS011;18003;-33.830;151.202;2023-02-12T00:36:46;15.40;;;6.42;;
25667;SDS011;18003;-33.830;151.202;2023-02-12T00:39:16;20.52;;;7.42;;
25667;SDS011;18003;-33.830;151.202;2023-02-12T00:41:46;21.55;;;7.30;;
25667;SDS011;18003;-33.830;151.202;2023-02-12T00:44:16;18.25;;;7.25;;
25667;SDS011;18003;-33.830;151.202;2023-02-12T00:46:46;23.55;;;7.12;;
25667;SDS011;18003;-33.830;151.202;2023-02-12T00:49:16;22.55;;;7.20;;
25667;SDS011;18003;-33.830;151.202;2023-02-12T00:51:46;18.07;;;7.28;;
25667;SDS011;18003;-33.830;151.202;2023-02-12T00:54:17;18.37;;;7.45;;
25667;SDS011;18003;-33.830;151.202;2023-02-12T00:56:47;21.77;;;6.50;;
25667;SDS011;18003;-33.830;151.202;2023-02-12T00:59:17;20.75;;;7.20;;
25667;SDS011;18003;-33.830;151.202;2023-02-12T01:01:47;18.92;;;7.45;;
25667;SDS011;18003;-33.830;151.202;2023-02-12T01:04:17;23.25;;;7.25;;
25667;SDS011;18003;-33.830;151.202;2023-02-12T01:06:47;21.33;;;6.72;;
25667;SDS011;18003;-33.830;151.202;2023-02-12T01:09:17;15.58;;;6.55;;
25667;SDS011;18003;-33.830;151.202;2023-02-12T01:11:47;18.82;;;6.72;;
25667;SDS011;18003;-33.830;151.202;2023-02-12T01:14:18;19.62;;;7.25;;
25667;SDS011;18003;-33.830;151.202;2023-02-12T01:16:48;21.27;;;6.95;;
25667;SDS011;18003;-33.830;151.202;2023-02-12T01:19:18;20.95;;;6.65;;
25667;SDS011;18003;-33.830;151.202;2023-02-12T01:21:48;25.88;;;7.42;;
25667;SDS011;18003;-33.830;151.202;2023-02-12T01:24:18;18.07;;;6.90;;
25667;SDS011;18003;-33.830;151.202;2023-02-12T01:26:48;20.17;;;7.30;;
25667;SDS011;18003;-33.830;151.202;2023-02-12T01:29:18;25.27;;;7.05;;
25667;SDS011;18003;-33.830;151.202;2023-02-12T01:31:48;18.75;;;6.80;;
25667;SDS011;18003;-33.830;151.202;2023-02-12T01:34:18;19.17;;;6.70;;
25667;SDS011;18003;-33.830;151.202;2023-02-12T01:36:48;19.10;;;6.83;;
25667;SDS011;18003;-33.830;151.202;2023-02-12T01:39:18;20.77;;;7.30;;
25667;SDS011;18003;-33.830;151.202;2023-02-12T01:41:51;20.12;;;6.72;;
25667;SDS011;18003;-33.830;151.202;2023-02-12T01:44:22;19.15;;;6.35;;
25667;SDS011;18003;-33.830;151.202;2023-02-12T01:52:16;18.85;;;6.55;;
25667;SDS011;18003;-33.830;151.202;2023-02-12T01:54:50;18.27;;;6.92;;
25667;SDS011;18003;-33.830;151.202;2023-02-12T01:59:51;16.90;;;6.28;;
25667;SDS011;18003;-33.830;151.202;2023-02-12T02:02:23;12.37;;;6.00;;
25667;SDS011;18003;-33.830;151.202;2023-02-12T02:04:55;16.70;;;5.97;;
25667;SDS011;18003;-33.830;151.202;2023-02-12T02:07:25;22.27;;;7.33;;
25667;SDS011;18003;-33.830;151.202;2023-02-12T02:09:55;18.60;;;6.30;;
25667;SDS011;18003;-33.830;151.202;2023-02-12T02:12:26;13.15;;;5.62;;
25667;SDS011;18003;-33.830;151.202;2023-02-12T02:15:15;20.05;;;6.33;;
25667;SDS011;18003;-33.830;151.202;2023-02-12T02:20:55;17.35;;;6.25;;
25667;SDS011;18003;-33.830;151.202;2023-02-12T02:23:39;16.77;;;5.90;;
25667;SDS011;18003;-33.830;151.202;2023-02-12T02:26:27;15.40;;;6.10;;
25667;SDS011;18003;-33.830;151.202;2023-02-12T02:31:40;19.60;;;6.40;;
25667;SDS011;18003;-33.830;151.202;2023-02-12T02:39:51;14.38;;;5.55;;
25667;SDS011;18003;-33.830;151.202;2023-02-12T02:42:19;17.90;;;5.83;;
25667;SDS011;18003;-33.830;151.202;2023-02-12T02:47:45;14.65;;;5.85;;
25667;SDS011;18003;-33.830;151.202;2023-02-12T02:50:19;14.23;;;6.15;;
25667;SDS011;18003;-33.830;151.202;2023-02-12T02:52:55;16.27;;;5.70;;
25667;SDS011;18003;-33.830;151.202;2023-02-12T02:55:23;17.30;;;6.03;;
25667;SDS011;18003;-33.830;151.202;2023-02-12T02:57:58;15.65;;;5.90;;
25667;SDS011;18003;-33.830;151.202;2023-02-12T03:00:42;20.40;;;6.55;;
25667;SDS011;18003;-33.830;151.202;2023-02-12T03:03:21;16.00;;;6.17;;
25667;SDS011;18003;-33.830;151.202;2023-02-12T03:05:58;15.95;;;5.87;;
25667;SDS011;18003;-33.830;151.202;2023-02-12T03:08:33;15.83;;;5.70;;
25667;SDS011;18003;-33.830;151.202;2023-02-12T03:11:10;18.60;;;6.40;;
25667;SDS011;18003;-33.830;151.202;2023-02-12T03:13:48;19.00;;;6.13;;
25667;SDS011;18003;-33.830;151.202;2023-02-12T03:16:26;19.87;;;5.72;;
25667;SDS011;18003;-33.830;151.202;2023-02-12T03:19:43;18.20;;;5.55;;
25667;SDS011;18003;-33.830;151.202;2023-02-12T03:21:30;16.90;;;5.45;;
25667;SDS011;18003;-33.830;151.202;2023-02-12T03:24:09;15.95;;;6.22;;
25667;SDS011;18003;-33.830;151.202;2023-02-12T03:26:57;17.05;;;5.67;;
25667;SDS011;18003;-33.830;151.202;2023-02-12T03:29:38;13.80;;;5.55;;
25667;SDS011;18003;-33.830;151.202;2023-02-12T03:33:12;16.32;;;6.62;;
25667;SDS011;18003;-33.830;151.202;2023-02-12T03:35:10;18.95;;;6.65;;
25667;SDS011;18003;-33.830;151.202;2023-02-12T03:38:08;18.70;;;6.37;;
25667;SDS011;18003;-33.830;151.202;2023-02-12T03:40:32;17.98;;;6.55;;
25667;SDS011;18003;-33.830;151.202;2023-02-12T03:43:33;21.05;;;6.97;;
25667;SDS011;18003;-33.830;151.202;2023-02-12T03:45:59;20.00;;;7.17;;
25667;SDS011;18003;-33.830;151.202;2023-02-12T03:48:47;18.17;;;6.20;;
25667;SDS011;18003;-33.830;151.202;2023-02-12T03:51:29;16.37;;;6.50;;
25667;SDS011;18003;-33.830;151.202;2023-02-12T03:54:19;15.40;;;6.37;;
25667;SDS011;18003;-33.830;151.202;2023-02-12T03:59:15;18.32;;;6.85;;
25667;SDS011;18003;-33.830;151.202;2023-02-12T04:01:46;18.17;;;6.50;;
25667;SDS011;18003;-33.830;151.202;2023-02-12T04:04:18;17.77;;;6.35;;
25667;SDS011;18003;-33.830;151.202;2023-02-12T04:06:49;16.17;;;6.53;;
25667;SDS011;18003;-33.830;151.202;2023-02-12T04:09:23;18.23;;;6.37;;
25667;SDS011;18003;-33.830;151.202;2023-02-12T04:31:49;17.42;;;6.37;;
25667;SDS011;18003;-33.830;151.202;2023-02-12T04:37:25;14.47;;;6.22;;
25667;SDS011;18003;-33.830;151.202;2023-02-12T04:39:55;16.27;;;6.83;;
25667;SDS011;18003;-33.830;151.202;2023-02-12T04:44:55;13.28;;;6.28;;
25667;SDS011;18003;-33.830;151.202;2023-02-12T04:47:24;15.28;;;6.15;;
25667;SDS011;18003;-33.830;151.202;2023-02-12T04:49:54;16.80;;;6.35;;
25667;SDS011;18003;-33.830;151.202;2023-02-12T04:52:24;17.02;;;6.33;;
25667;SDS011;18003;-33.830;151.202;2023-02-12T04:54:54;16.82;;;5.72;;
25667;SDS011;18003;-33.830;151.202;2023-02-12T04:57:24;13.25;;;5.80;;
25667;SDS011;18003;-33.830;151.202;2023-02-12T04:59:54;14.20;;;5.75;;
25667;SDS011;18003;-33.830;151.202;2023-02-12T05:02:25;18.57;;;6.08;;
25667;SDS011;18003;-33.830;151.202;2023-02-12T05:04:55;19.20;;;5.33;;
25667;SDS011;18003;-33.830;151.202;2023-02-12T05:07:25;21.70;;;5.30;;
25667;SDS011;18003;-33.830;151.202;2023-02-12T05:09:55;15.83;;;5.90;;
25667;SDS011;18003;-33.830;151.202;2023-02-12T05:12:25;16.17;;;5.45;;
25667;SDS011;18003;-33.830;151.202;2023-02-12T05:14:55;17.10;;;5.40;;
25667;SDS011;18003;-33.830;151.202;2023-02-12T05:17:26;13.30;;;5.65;;
25667;SDS011;18003;-33.830;151.202;2023-02-12T05:19:57;15.65;;;5.47;;
25667;SDS011;18003;-33.830;151.202;2023-02-12T05:22:27;18.02;;;5.80;;
25667;SDS011;18003;-33.830;151.202;2023-02-12T05:24:57;17.15;;;5.90;;
25667;SDS011;18003;-33.830;151.202;2023-02-12T05:27:27;12.07;;;5.28;;
25667;SDS011;18003;-33.830;151.202;2023-02-12T05:29:57;15.68;;;5.50;;
25667;SDS011;18003;-33.830;151.202;2023-02-12T05:32:28;14.30;;;5.10;;
25667;SDS011;18003;-33.830;151.202;2023-02-12T05:34:58;12.70;;;5.17;;
25667;SDS011;18003;-33.830;151.202;2023-02-12T05:37:28;15.05;;;5.25;;
25667;SDS011;18003;-33.830;151.202;2023-02-12T05:39:58;15.58;;;5.37;;
25667;SDS011;18003;-33.830;151.202;2023-02-12T05:42:28;14.45;;;5.60;;
25667;SDS011;18003;-33.830;151.202;2023-02-12T05:44:58;12.98;;;5.37;;
25667;SDS011;18003;-33.830;151.202;2023-02-12T05:47:27;13.35;;;5.30;;
25667;SDS011;18003;-33.830;151.202;2023-02-12T05:49:57;14.33;;;5.62;;
25667;SDS011;18003;-33.830;151.202;2023-02-12T05:52:27;19.10;;;6.40;;
25667;SDS011;18003;-33.830;151.202;2023-02-12T05:54:57;17.85;;;6.08;;
25667;SDS011;18003;-33.830;151.202;2023-02-12T05:57:27;18.05;;;6.00;;
25667;SDS011;18003;-33.830;151.202;2023-02-12T05:59:57;16.75;;;5.85;;
25667;SDS011;18003;-33.830;151.202;2023-02-12T06:02:27;16.25;;;6.85;;
25667;SDS011;18003;-33.830;151.202;2023-02-12T06:04:57;16.90;;;5.90;;
25667;SDS011;18003;-33.830;151.202;2023-02-12T06:07:27;19.80;;;6.33;;
25667;SDS011;18003;-33.830;151.202;2023-02-12T06:09:57;16.62;;;6.35;;
25667;SDS011;18003;-33.830;151.202;2023-02-12T06:12:27;15.72;;;5.90;;
25667;SDS011;18003;-33.830;151.202;2023-02-12T06:14:57;19.52;;;6.12;;
25667;SDS011;18003;-33.830;151.202;2023-02-12T06:17:27;17.37;;;5.60;;
25667;SDS011;18003;-33.830;151.202;2023-02-12T06:19:57;19.87;;;6.42;;
25667;SDS011;18003;-33.830;151.202;2023-02-12T06:22:28;15.15;;;6.12;;
25667;SDS011;18003;-33.830;151.202;2023-02-12T06:24:59;19.27;;;6.10;;
25667;SDS011;18003;-33.830;151.202;2023-02-12T06:27:29;20.75;;;6.62;;
25667;SDS011;18003;-33.830;151.202;2023-02-12T06:29:58;22.00;;;6.30;;
25667;SDS011;18003;-33.830;151.202;2023-02-12T06:32:28;22.20;;;6.40;;
25667;SDS011;18003;-33.830;151.202;2023-02-12T06:34:59;19.35;;;6.03;;
25667;SDS011;18003;-33.830;151.202;2023-02-12T06:37:29;19.95;;;5.70;;
25667;SDS011;18003;-33.830;151.202;2023-02-12T06:40:00;19.85;;;6.47;;
25667;SDS011;18003;-33.830;151.202;2023-02-12T06:42:30;19.87;;;6.58;;
25667;SDS011;18003;-33.830;151.202;2023-02-12T06:45:00;23.07;;;6.67;;
25667;SDS011;18003;-33.830;151.202;2023-02-12T06:47:30;19.00;;;6.33;;
25667;SDS011;18003;-33.830;151.202;2023-02-12T06:50:00;24.00;;;6.60;;
25667;SDS011;18003;-33.830;151.202;2023-02-12T06:52:30;18.45;;;6.35;;
25667;SDS011;18003;-33.830;151.202;2023-02-12T06:55:00;16.62;;;5.67;;
25667;SDS011;18003;-33.830;151.202;2023-02-12T06:57:30;17.50;;;6.33;;
25667;SDS011;18003;-33.830;151.202;2023-02-12T07:00:00;27.77;;;7.50;;
25667;SDS011;18003;-33.830;151.202;2023-02-12T07:02:31;30.00;;;6.75;;
25667;SDS011;18003;-33.830;151.202;2023-02-12T07:05:01;22.32;;;6.00;;
25667;SDS011;18003;-33.830;151.202;2023-02-12T07:07:31;17.92;;;6.22;;
25667;SDS011;18003;-33.830;151.202;2023-02-12T07:10:01;17.67;;;5.80;;
25667;SDS011;18003;-33.830;151.202;2023-02-12T07:12:32;21.93;;;6.10;;
25667;SDS011;18003;-33.830;151.202;2023-02-12T07:15:02;20.75;;;6.28;;
25667;SDS011;18003;-33.830;151.202;2023-02-12T07:17:32;15.70;;;5.97;;
25667;SDS011;18003;-33.830;151.202;2023-02-12T07:20:02;19.75;;;6.28;;
25667;SDS011;18003;-33.830;151.202;2023-02-12T07:22:34;19.00;;;6.00;;
25667;SDS011;18003;-33.830;151.202;2023-02-12T07:25:04;21.93;;;6.53;;
25667;SDS011;18003;-33.830;151.202;2023-02-12T07:27:37;18.10;;;5.80;;
25667;SDS011;18003;-33.830;151.202;2023-02-12T07:30:08;15.60;;;5.42;;
25667;SDS011;18003;-33.830;151.202;2023-02-12T07:32:38;20.17;;;5.90;;
25667;SDS011;18003;-33.830;151.202;2023-02-12T07:35:08;15.50;;;6.15;;
25667;SDS011;18003;-33.830;151.202;2023-02-12T07:37:38;18.23;;;6.33;;
25667;SDS011;18003;-33.830;151.202;2023-02-12T07:40:08;17.60;;;6.10;;
25667;SDS011;18003;-33.830;151.202;2023-02-12T07:42:39;17.02;;;6.03;;
25667;SDS011;18003;-33.830;151.202;2023-02-12T07:45:09;17.70;;;5.53;;
25667;SDS011;18003;-33.830;151.202;2023-02-12T07:47:39;15.08;;;5.40;;
25667;SDS011;18003;-33.830;151.202;2023-02-12T07:50:09;15.05;;;5.40;;
25667;SDS011;18003;-33.830;151.202;2023-02-12T07:52:39;18.75;;;5.97;;
25667;SDS011;18003;-33.830;151.202;2023-02-12T07:55:09;16.42;;;4.83;;
25667;SDS011;18003;-33.830;151.202;2023-02-12T07:57:39;15.38;;;5.40;;
25667;SDS011;18003;-33.830;151.202;2023-02-12T08:00:09;15.88;;;5.62;;
25667;SDS011;18003;-33.830;151.202;2023-02-12T08:02:40;13.62;;;5.22;;
25667;SDS011;18003;-33.830;151.202;2023-02-12T08:05:10;12.13;;;5.15;;
25667;SDS011;18003;-33.830;151.202;2023-02-12T08:07:40;13.38;;;4.42;;
25667;SDS011;18003;-33.830;151.202;2023-02-12T08:10:10;16.30;;;4.97;;
25667;SDS011;18003;-33.830;151.202;2023-02-12T08:12:40;12.68;;;4.80;;
25667;SDS011;18003;-33.830;151.202;2023-02-12T08:15:10;15.00;;;4.90;;
25667;SDS011;18003;-33.830;151.202;2023-02-12T08:17:40;12.25;;;4.80;;
25667;SDS011;18003;-33.830;151.202;2023-02-12T08:20:10;14.47;;;4.85;;
25667;SDS011;18003;-33.830;151.202;2023-02-12T08:22:40;14.87;;;4.60;;
25667;SDS011;18003;-33.830;151.202;2023-02-12T08:25:11;11.93;;;4.72;;
25667;SDS011;18003;-33.830;151.202;2023-02-12T08:27:41;13.83;;;4.35;;
25667;SDS011;18003;-33.830;151.202;2023-02-12T08:30:11;11.75;;;4.55;;
25667;SDS011;18003;-33.830;151.202;2023-02-12T08:32:42;10.30;;;4.20;;
25667;SDS011;18003;-33.830;151.202;2023-02-12T08:35:12;14.80;;;4.80;;
25667;SDS011;18003;-33.830;151.202;2023-02-12T08:37:42;13.90;;;4.50;;
25667;SDS011;18003;-33.830;151.202;2023-02-12T08:40:12;12.28;;;4.40;;
25667;SDS011;18003;-33.830;151.202;2023-02-12T08:42:42;13.68;;;4.80;;
25667;SDS011;18003;-33.830;151.202;2023-02-12T08:45:12;12.53;;;4.00;;
25667;SDS011;18003;-33.830;151.202;2023-02-12T08:47:42;14.33;;;4.33;;
25667;SDS011;18003;-33.830;151.202;2023-02-12T08:50:13;10.08;;;4.50;;
25667;SDS011;18003;-33.830;151.202;2023-02-12T08:52:43;14.55;;;4.00;;
25667;SDS011;18003;-33.830;151.202;2023-02-12T08:55:13;11.60;;;4.35;;
25667;SDS011;18003;-33.830;151.202;2023-02-12T08:57:43;11.08;;;4.03;;
25667;SDS011;18003;-33.830;151.202;2023-02-12T09:00:13;11.93;;;4.75;;
25667;SDS011;18003;-33.830;151.202;2023-02-12T09:02:43;10.72;;;5.15;;
25667;SDS011;18003;-33.830;151.202;2023-02-12T09:05:14;11.05;;;4.55;;
25667;SDS011;18003;-33.830;151.202;2023-02-12T09:07:44;9.28;;;3.90;;
25667;SDS011;18003;-33.830;151.202;2023-02-12T09:10:15;12.63;;;4.57;;
25667;SDS011;18003;-33.830;151.202;2023-02-12T09:12:45;11.38;;;4.37;;
25667;SDS011;18003;-33.830;151.202;2023-02-12T09:15:15;10.35;;;4.10;;
25667;SDS011;18003;-33.830;151.202;2023-02-12T09:17:45;10.13;;;4.28;;
25667;SDS011;18003;-33.830;151.202;2023-02-12T09:20:15;13.30;;;4.55;;
25667;SDS011;18003;-33.830;151.202;2023-02-12T09:22:46;12.63;;;4.33;;
25667;SDS011;18003;-33.830;151.202;2023-02-12T09:25:16;12.58;;;4.83;;
25667;SDS011;18003;-33.830;151.202;2023-02-12T09:27:46;13.98;;;4.58;;
25667;SDS011;18003;-33.830;151.202;2023-02-12T09:30:17;10.75;;;4.45;;
25667;SDS011;18003;-33.830;151.202;2023-02-12T09:32:47;12.98;;;4.30;;
25667;SDS011;18003;-33.830;151.202;2023-02-12T09:35:17;12.90;;;4.60;;
25667;SDS011;18003;-33.830;151.202;2023-02-12T09:37:47;13.73;;;4.57;;
25667;SDS011;18003;-33.830;151.202;2023-02-12T09:40:23;11.60;;;4.15;;
25667;SDS011;18003;-33.830;151.202;2023-02-12T09:43:04;11.63;;;4.45;;
25667;SDS011;18003;-33.830;151.202;2023-02-12T09:45:52;12.70;;;4.00;;
25667;SDS011;18003;-33.830;151.202;2023-02-12T09:48:32;12.50;;;4.50;;
25667;SDS011;18003;-33.830;151.202;2023-02-12T09:50:59;11.12;;;4.58;;
25667;SDS011;18003;-33.830;151.202;2023-02-12T09:53:31;12.45;;;4.35;;
25667;SDS011;18003;-33.830;151.202;2023-02-12T09:56:04;13.68;;;4.83;;
25667;SDS011;18003;-33.830;151.202;2023-02-12T09:58:51;13.15;;;4.25;;
25667;SDS011;18003;-33.830;151.202;2023-02-12T10:01:23;12.75;;;4.30;;
25667;SDS011;18003;-33.830;151.202;2023-02-12T10:03:54;10.70;;;4.47;;
25667;SDS011;18003;-33.830;151.202;2023-02-12T10:09:07;12.80;;;4.67;;
25667;SDS011;18003;-33.830;151.202;2023-02-12T10:11:52;12.88;;;4.45;;
25667;SDS011;18003;-33.830;151.202;2023-02-12T10:14:48;13.50;;;4.28;;
25667;SDS011;18003;-33.830;151.202;2023-02-12T10:22:59;11.50;;;4.15;;
25667;SDS011;18003;-33.830;151.202;2023-02-12T10:28:18;13.00;;;4.30;;
25667;SDS011;18003;-33.830;151.202;2023-02-12T10:30:51;13.60;;;4.58;;
25667;SDS011;18003;-33.830;151.202;2023-02-12T10:33:28;17.70;;;5.03;;
25667;SDS011;18003;-33.830;151.202;2023-02-12T10:36:02;16.00;;;4.58;;
25667;SDS011;18003;-33.830;151.202;2023-02-12T10:38:49;15.85;;;5.17;;
25667;SDS011;18003;-33.830;151.202;2023-02-12T10:41:23;14.03;;;4.45;;
25667;SDS011;18003;-33.830;151.202;2023-02-12T10:46:23;17.98;;;5.22;;
25667;SDS011;18003;-33.830;151.202;2023-02-12T10:48:54;13.30;;;4.72;;
25667;SDS011;18003;-33.830;151.202;2023-02-12T10:54:44;14.50;;;5.05;;
25667;SDS011;18003;-33.830;151.202;2023-02-12T10:57:30;19.07;;;4.95;;
25667;SDS011;18003;-33.830;151.202;2023-02-12T11:00:14;14.90;;;4.23;;
25667;SDS011;18003;-33.830;151.202;2023-02-12T11:02:58;14.73;;;4.72;;
25667;SDS011;18003;-33.830;151.202;2023-02-12T11:05:30;13.43;;;4.42;;
25667;SDS011;18003;-33.830;151.202;2023-02-12T11:08:02;15.25;;;4.62;;
25667;SDS011;18003;-33.830;151.202;2023-02-12T11:10:39;15.28;;;4.40;;
25667;SDS011;18003;-33.830;151.202;2023-02-12T11:13:22;17.23;;;5.00;;
25667;SDS011;18003;-33.830;151.202;2023-02-12T11:15:55;17.98;;;5.50;;
25667;SDS011;18003;-33.830;151.202;2023-02-12T11:18:29;18.55;;;5.28;;
25667;SDS011;18003;-33.830;151.202;2023-02-12T11:21:10;15.98;;;4.90;;
25667;SDS011;18003;-33.830;151.202;2023-02-12T11:23:41;17.50;;;4.95;;
25667;SDS011;18003;-33.830;151.202;2023-02-12T11:28:54;11.57;;;4.72;;
25667;SDS011;18003;-33.830;151.202;2023-02-12T11:31:30;12.97;;;4.70;;
25667;SDS011;18003;-33.830;151.202;2023-02-12T11:34:07;14.18;;;4.67;;
25667;SDS011;18003;-33.830;151.202;2023-02-12T11:36:39;17.55;;;4.83;;
25667;SDS011;18003;-33.830;151.202;2023-02-12T11:39:26;14.83;;;4.85;;
25667;SDS011;18003;-33.830;151.202;2023-02-12T11:42:03;12.70;;;4.55;;
25667;SDS011;18003;-33.830;151.202;2023-02-12T11:44:34;13.50;;;4.25;;
25667;SDS011;18003;-33.830;151.202;2023-02-12T11:47:09;14.70;;;4.25;;
25667;SDS011;18003;-33.830;151.202;2023-02-12T11:49:41;12.07;;;4.10;;
25667;SDS011;18003;-33.830;151.202;2023-02-12T11:52:17;11.83;;;4.33;;
25667;SDS011;18003;-33.830;151.202;2023-02-12T11:54:45;11.35;;;4.20;;
25667;SDS011;18003;-33.830;151.202;2023-02-12T12:00:05;15.70;;;4.75;;
25667;SDS011;18003;-33.830;151.202;2023-02-12T12:02:57;13.18;;;4.45;;
25667;SDS011;18003;-33.830;151.202;2023-02-12T12:05:54;18.67;;;5.70;;
25667;SDS011;18003;-33.830;151.202;2023-02-12T12:11:00;17.37;;;4.60;;
25667;SDS011;18003;-33.830;151.202;2023-02-12T12:13:36;13.93;;;4.35;;
25667;SDS011;18003;-33.830;151.202;2023-02-12T12:16:10;15.70;;;4.78;;
25667;SDS011;18003;-33.830;151.202;2023-02-12T12:19:26;15.30;;;5.50;;
25667;SDS011;18003;-33.830;151.202;2023-02-12T12:22:26;18.05;;;5.12;;
25667;SDS011;18003;-33.830;151.202;2023-02-12T12:24:56;14.70;;;4.83;;
25667;SDS011;18003;-33.830;151.202;2023-02-12T12:33:25;15.60;;;5.25;;
25667;SDS011;18003;-33.830;151.202;2023-02-12T12:39:02;15.85;;;5.20;;
25667;SDS011;18003;-33.830;151.202;2023-02-12T12:44:39;17.90;;;5.72;;
25667;SDS011;18003;-33.830;151.202;2023-02-12T13:13:36;18.73;;;5.87;;
25667;SDS011;18003;-33.830;151.202;2023-02-12T13:21:47;15.50;;;6.45;;
25667;SDS011;18003;-33.830;151.202;2023-02-12T13:24:39;18.57;;;5.75;;
25667;SDS011;18003;-33.830;151.202;2023-02-12T13:29:51;15.93;;;6.33;;
25667;SDS011;18003;-33.830;151.202;2023-02-12T13:32:22;16.00;;;5.75;;
25667;SDS011;18003;-33.830;151.202;2023-02-12T13:34:52;14.35;;;5.90;;
25667;SDS011;18003;-33.830;151.202;2023-02-12T13:37:41;16.75;;;5.62;;
25667;SDS011;18003;-33.830;151.202;2023-02-12T13:40:13;16.52;;;6.22;;
25667;SDS011;18003;-33.830;151.202;2023-02-12T13:42:48;17.55;;;6.28;;
25667;SDS011;18003;-33.830;151.202;2023-02-12T13:45:54;21.35;;;6.00;;
25667;SDS011;18003;-33.830;151.202;2023-02-12T13:50:46;20.80;;;6.40;;
25667;SDS011;18003;-33.830;151.202;2023-02-12T13:53:31;16.82;;;5.78;;
25667;SDS011;18003;-33.830;151.202;2023-02-12T13:58:47;17.67;;;6.12;;
25667;SDS011;18003;-33.830;151.202;2023-02-12T14:04:14;16.48;;;6.10;;
25667;SDS011;18003;-33.830;151.202;2023-02-12T14:07:03;17.32;;;6.40;;
25667;SDS011;18003;-33.830;151.202;2023-02-12T14:18:34;22.15;;;6.47;;
25667;SDS011;18003;-33.830;151.202;2023-02-12T14:20:23;18.42;;;6.25;;
25667;SDS011;18003;-33.830;151.202;2023-02-12T14:28:40;11.40;;;5.53;;
25667;SDS011;18003;-33.830;151.202;2023-02-12T14:31:34;20.43;;;5.92;;
25667;SDS011;18003;-33.830;151.202;2023-02-12T14:36:37;16.67;;;5.62;;
25667;SDS011;18003;-33.830;151.202;2023-02-12T14:44:43;15.58;;;5.87;;
25667;SDS011;18003;-33.830;151.202;2023-02-12T14:47:14;19.82;;;5.95;;
25667;SDS011;18003;-33.830;151.202;2023-02-12T14:49:46;15.98;;;5.78;;
25667;SDS011;18003;-33.830;151.202;2023-02-12T14:52:26;15.80;;;5.70;;
25667;SDS011;18003;-33.830;151.202;2023-02-12T14:55:02;15.30;;;5.25;;
25667;SDS011;18003;-33.830;151.202;2023-02-12T14:57:38;15.30;;;5.50;;
25667;SDS011;18003;-33.830;151.202;2023-02-12T15:02:56;13.78;;;5.65;;
25667;SDS011;18003;-33.830;151.202;2023-02-12T15:16:36;19.20;;;5.67;;
25667;SDS011;18003;-33.830;151.202;2023-02-12T15:19:19;19.90;;;5.43;;
25667;SDS011;18003;-33.830;151.202;2023-02-12T15:22:11;18.15;;;5.28;;
25667;SDS011;18003;-33.830;151.202;2023-02-12T15:24:33;21.68;;;6.45;;
25667;SDS011;18003;-33.830;151.202;2023-02-12T15:27:03;17.17;;;5.30;;
25667;SDS011;18003;-33.830;151.202;2023-02-12T15:29:39;19.20;;;5.85;;
25667;SDS011;18003;-33.830;151.202;2023-02-12T15:32:15;19.87;;;5.60;;
25667;SDS011;18003;-33.830;151.202;2023-02-12T15:34:46;15.32;;;5.65;;
25667;SDS011;18003;-33.830;151.202;2023-02-12T15:37:26;19.45;;;5.85;;
25667;SDS011;18003;-33.830;151.202;2023-02-12T15:39:58;20.65;;;5.90;;
25667;SDS011;18003;-33.830;151.202;2023-02-12T15:42:36;20.02;;;5.92;;
25667;SDS011;18003;-33.830;151.202;2023-02-12T15:47:45;18.48;;;5.90;;
25667;SDS011;18003;-33.830;151.202;2023-02-12T15:50:33;18.37;;;5.28;;
25667;SDS011;18003;-33.830;151.202;2023-02-12T15:53:04;16.32;;;5.60;;
25667;SDS011;18003;-33.830;151.202;2023-02-12T15:55:34;17.55;;;5.70;;
25667;SDS011;18003;-33.830;151.202;2023-02-12T15:58:13;16.75;;;6.45;;
25667;SDS011;18003;-33.830;151.202;2023-02-12T16:00:41;18.87;;;5.92;;
25667;SDS011;18003;-33.830;151.202;2023-02-12T16:03:22;19.50;;;5.83;;
25667;SDS011;18003;-33.830;151.202;2023-02-12T16:05:55;20.72;;;5.75;;
25667;SDS011;18003;-33.830;151.202;2023-02-12T16:08:25;18.48;;;5.83;;
25667;SDS011;18003;-33.830;151.202;2023-02-12T16:10:56;19.25;;;5.78;;
25667;SDS011;18003;-33.830;151.202;2023-02-12T16:13:30;19.62;;;5.70;;
25667;SDS011;18003;-33.830;151.202;2023-02-12T16:16:05;18.23;;;6.37;;
25667;SDS011;18003;-33.830;151.202;2023-02-12T16:18:37;21.57;;;5.92;;
25667;SDS011;18003;-33.830;151.202;2023-02-12T16:21:20;20.08;;;5.92;;
25667;SDS011;18003;-33.830;151.202;2023-02-12T16:23:50;17.73;;;5.22;;
25667;SDS011;18003;-33.830;151.202;2023-02-12T16:26:26;18.57;;;5.40;;
25667;SDS011;18003;-33.830;151.202;2023-02-12T16:28:53;16.20;;;5.22;;
25667;SDS011;18003;-33.830;151.202;2023-02-12T16:31:25;17.57;;;5.17;;
25667;SDS011;18003;-33.830;151.202;2023-02-12T16:38:57;18.85;;;5.62;;
25667;SDS011;18003;-33.830;151.202;2023-02-12T16:41:34;15.35;;;5.35;;
25667;SDS011;18003;-33.830;151.202;2023-02-12T16:46:54;17.07;;;5.20;;
25667;SDS011;18003;-33.830;151.202;2023-02-12T16:49:21;17.27;;;5.15;;
25667;SDS011;18003;-33.830;151.202;2023-02-12T16:54:33;18.17;;;5.15;;
25667;SDS011;18003;-33.830;151.202;2023-02-12T16:57:03;18.95;;;5.62;;
25667;SDS011;18003;-33.830;151.202;2023-02-12T16:59:35;17.42;;;5.60;;
25667;SDS011;18003;-33.830;151.202;2023-02-12T17:02:10;14.78;;;5.10;;
25667;SDS011;18003;-33.830;151.202;2023-02-12T17:04:41;15.70;;;5.53;;
25667;SDS011;18003;-33.830;151.202;2023-02-12T17:07:19;16.60;;;5.15;;
25667;SDS011;18003;-33.830;151.202;2023-02-12T17:09:49;19.90;;;5.60;;
25667;SDS011;18003;-33.830;151.202;2023-02-12T17:12:19;15.90;;;5.00;;
25667;SDS011;18003;-33.830;151.202;2023-02-12T17:14:49;18.77;;;5.85;;
25667;SDS011;18003;-33.830;151.202;2023-02-12T17:17:20;19.00;;;5.28;;
25667;SDS011;18003;-33.830;151.202;2023-02-12T17:19:50;20.30;;;5.70;;
25667;SDS011;18003;-33.830;151.202;2023-02-12T17:22:21;18.85;;;6.03;;
25667;SDS011;18003;-33.830;151.202;2023-02-12T17:24:52;16.17;;;5.10;;
25667;SDS011;18003;-33.830;151.202;2023-02-12T17:27:22;21.52;;;5.65;;
25667;SDS011;18003;-33.830;151.202;2023-02-12T17:29:52;23.38;;;6.33;;